Sao Joao do Pau d'Alho, Brazil
Current Conditions -  °F | °C
As of 2:00 PM on Saturday 25 Oct 2014 (Local Time) from SBDN Reporting Station
Overcast Overcast  
Wind Chill: 73°   Ceiling: 1500
Heat Index: 73°   Visibility: 6mi
Dew Point: 68°   Wind: 8mph
Humidity: 83%   Direction: 30°NNE
Pressure: 29.97"   Gusts: NA
Location:  21.27°S, 51.67°W
Report Text: SBDN 251600Z 03007KT 350V070 9999 FEW010 BKN015 OVC080 23/20 Q1015
Loading
Personal Weather Stations






























Interactive Weather Map
Tropical Storm Tracking
New forecast layout! Learn more

10-Day Weather Forecast

Advertisements
Track Severe Weather on mobile